map of LUX home
LUX - Airport
Location
City:  Luxembourg, Luxembourg
Name:Luxembourg-Findel International Airport
ICAO:ELLX
IATA:LUX

Details
Type:Airport (Aerodrome, Airfield)
Use:International (customs port of entry)
Latitude:4937'24"N (49.623333)
Longitude:612'16"E (6.204444)
Elevation:1234 ft (376 m)
Variation:1.97E (WMM2015v2 magnetic declination)
0.17 annual change
Runways:1
Longest:13123 × 197 ft (4000 × 60 m), paved

Time
Time Zone:UTC+1 (DST+2)
Local Time:

Weather
METAR:ELLX 041350Z 18007KT 150V210 CAVOK 02/M03 Q1026 NOSIG
TAF:ELLX 041100Z 0412/0518 18007KT CAVOK
TEMPO 0418/0503 -SN PROB30 0505/0518 2000 -SG BR BKN004

Related Locations
Nearby:
Farthest:CHT: 12010 mi / 19328 km
Waitangi [Tuuta], CIT, NZ

Find:

   beyond  
but within

Other Information
Maps:
NOTAMs:
Links:
Sources:

  
  • flag of Luxembourg
  

Airport Diagram

Airport diagram for LUX

Larger airport diagram (OBSOLETE) from NGA

Sectional Chart

Flight Planning
at skyvector.com

Satellite Image

Google Maps Satellite view

 

Copyright © 2004-2019 Karl L. Swartz. All rights reserved.
The Great Circle Mapper name and logo are trademarks of the Great Circle Mapper.
All other trademarks mentioned herein belong to their respective owners.
Please see credits for attibutions and further copyright information.

  Follow gcmap on Facebook Follow gcmap on Twitter GCmap on LinkedIn

hCard Microformat

Geo Microformat